createdAt,value
2019-02-09T00:02:54.863Z,0.30
2019-02-09T00:07:58.239Z,0.30
2019-02-09T00:13:01.639Z,0.30
2019-02-09T00:18:06.054Z,0.20
2019-02-09T00:23:09.598Z,0.20
2019-02-09T00:28:13.061Z,0.20
2019-02-09T00:33:16.463Z,0.20
2019-02-09T00:38:19.841Z,0.20
2019-02-09T00:43:23.219Z,0.20
2019-02-09T00:48:26.594Z,0.20
2019-02-09T00:53:29.988Z,0.10
2019-02-09T00:58:33.371Z,0.20
2019-02-09T01:03:36.844Z,0.10
2019-02-09T01:08:40.228Z,0.10
2019-02-09T01:13:43.613Z,0.10
2019-02-09T01:18:47.004Z,0.10
2019-02-09T01:23:50.390Z,0.10
2019-02-09T01:28:53.795Z,0.10
2019-02-09T01:33:57.187Z,0.10
2019-02-09T01:39:00.566Z,0.10
2019-02-09T01:44:04.115Z,0.00
2019-02-09T01:49:07.494Z,0.00
2019-02-09T01:54:10.875Z,0.00
2019-02-09T01:59:14.260Z,0.00
2019-02-09T02:04:17.638Z,0.00
2019-02-09T02:09:21.016Z,0.00
2019-02-09T02:14:24.394Z,0.00
2019-02-09T02:19:27.781Z,0.00
2019-02-09T02:24:31.166Z,-0.10
2019-02-09T02:29:34.539Z,-0.10
2019-02-09T02:34:37.914Z,-0.10
2019-02-09T02:39:41.299Z,-0.10
2019-02-09T02:44:44.683Z,-0.10
2019-02-09T02:49:48.071Z,-0.10
2019-02-09T02:54:51.461Z,-0.20
2019-02-09T02:59:54.848Z,-0.20
2019-02-09T03:04:58.222Z,-0.20
2019-02-09T03:10:01.603Z,-0.20
2019-02-09T03:15:08.064Z,-0.30
2019-02-09T03:20:16.517Z,-0.30
2019-02-09T03:25:22.652Z,-0.30
2019-02-09T03:30:26.562Z,-0.40
2019-02-09T03:35:30.003Z,-0.40
2019-02-09T03:40:33.418Z,-0.40
2019-02-09T03:45:36.799Z,-0.40
2019-02-09T03:50:40.194Z,-0.40
2019-02-09T03:55:43.599Z,-0.50
2019-02-09T04:00:54.962Z,-0.50
2019-02-09T04:05:52.173Z,-0.50
2019-02-09T04:10:55.554Z,-0.50
2019-02-09T04:15:58.942Z,-0.50
2019-02-09T04:21:02.322Z,-0.50
2019-02-09T04:26:05.733Z,-0.50
2019-02-09T04:31:09.140Z,-0.60
2019-02-09T04:36:12.531Z,-0.60
2019-02-09T04:41:15.932Z,-0.60
2019-02-09T04:46:19.318Z,-0.50
2019-02-09T04:51:22.699Z,-0.50
2019-02-09T04:56:26.092Z,-0.50
2019-02-09T05:01:29.475Z,-0.50
2019-02-09T05:06:32.891Z,-0.50
2019-02-09T05:11:36.341Z,-0.50
2019-02-09T05:16:39.774Z,-0.50
2019-02-09T05:21:43.164Z,-0.50
2019-02-09T05:26:46.563Z,-0.40
2019-02-09T05:31:49.983Z,-0.40
2019-02-09T05:36:53.372Z,-0.30
2019-02-09T05:41:56.754Z,-0.40
2019-02-09T05:47:00.170Z,-0.30
2019-02-09T05:52:03.651Z,-0.30
2019-02-09T05:57:07.051Z,-0.30
2019-02-09T06:02:10.451Z,-0.20
2019-02-09T06:07:13.840Z,-0.20
2019-02-09T06:12:17.248Z,-0.20
2019-02-09T06:17:20.653Z,-0.20
2019-02-09T06:22:25.543Z,-0.10
2019-02-09T06:27:29.038Z,-0.10
2019-02-09T06:32:32.408Z,0.00
2019-02-09T06:37:36.264Z,0.00
2019-02-09T06:42:39.650Z,0.00
2019-02-09T06:47:43.112Z,0.00
2019-02-09T06:52:46.489Z,0.00
2019-02-09T06:57:49.875Z,0.10
2019-02-09T07:02:54.581Z,0.10
2019-02-09T07:07:58.039Z,0.10
2019-02-09T07:13:01.457Z,0.10
2019-02-09T07:18:06.483Z,0.20
2019-02-09T07:23:09.867Z,0.20
2019-02-09T07:28:13.351Z,0.30
2019-02-09T07:33:16.735Z,0.30
2019-02-09T07:38:20.128Z,0.30
2019-02-09T07:43:23.521Z,0.30
2019-02-09T07:48:26.916Z,0.30
2019-02-09T07:53:30.361Z,0.40
2019-02-09T07:58:33.747Z,0.40
2019-02-09T08:03:37.139Z,0.50
2019-02-09T08:08:40.518Z,0.50
2019-02-09T08:13:43.921Z,0.60
2019-02-09T08:18:47.311Z,0.60
2019-02-09T08:23:50.699Z,0.70
2019-02-09T08:28:54.079Z,0.70
2019-02-09T08:33:57.480Z,0.90
2019-02-09T08:39:00.859Z,1.00
2019-02-09T08:44:04.339Z,1.20
2019-02-09T08:49:07.760Z,1.50
2019-02-09T08:54:11.174Z,1.80
2019-02-09T08:59:14.555Z,2.00
2019-02-09T09:04:17.998Z,2.30
2019-02-09T09:09:21.382Z,2.70
2019-02-09T09:14:24.807Z,2.80
2019-02-09T09:19:28.188Z,2.90
2019-02-09T09:24:31.578Z,3.10
2019-02-09T09:29:34.967Z,3.10
2019-02-09T09:34:38.339Z,3.20
2019-02-09T09:39:41.715Z,3.30
2019-02-09T09:44:45.092Z,3.50
2019-02-09T09:49:48.493Z,3.70
2019-02-09T09:54:51.885Z,4.00
2019-02-09T09:59:55.287Z,4.30
2019-02-09T10:04:58.680Z,4.60
2019-02-09T10:10:02.064Z,4.80
2019-02-09T10:15:08.565Z,5.10
2019-02-09T10:20:17.598Z,5.30
2019-02-09T10:25:21.124Z,5.50
2019-02-09T10:30:26.902Z,5.80
2019-02-09T10:35:30.632Z,6.10
2019-02-09T10:40:35.592Z,6.30
2019-02-09T10:45:38.971Z,6.60
2019-02-09T10:50:44.689Z,6.80
2019-02-09T10:55:48.128Z,7.10
2019-02-09T11:00:54.597Z,7.30
2019-02-09T11:05:57.981Z,7.50
2019-02-09T11:11:01.430Z,7.80
2019-02-09T11:16:04.993Z,8.00
2019-02-09T11:21:08.391Z,8.20
2019-02-09T11:26:11.763Z,8.20
2019-02-09T11:31:15.140Z,8.30
2019-02-09T11:36:18.523Z,8.20
2019-02-09T11:41:21.911Z,8.20
2019-02-09T11:46:25.752Z,8.00
2019-02-09T11:51:29.175Z,8.00
2019-02-09T11:56:32.892Z,7.90
2019-02-09T12:01:36.809Z,7.80
2019-02-09T12:06:40.191Z,7.80
2019-02-09T12:11:43.663Z,7.80
2019-02-09T12:16:47.035Z,7.90
2019-02-09T12:21:50.429Z,8.00
2019-02-09T12:26:53.838Z,8.20
2019-02-09T12:31:57.708Z,8.40
2019-02-09T12:37:01.158Z,8.70
2019-02-09T12:42:04.681Z,8.80
2019-02-09T12:47:08.061Z,8.90
2019-02-09T12:52:11.511Z,8.90
2019-02-09T12:57:14.888Z,9.00
2019-02-09T13:02:18.280Z,8.90
2019-02-09T13:07:21.660Z,8.80
2019-02-09T13:12:25.039Z,8.70
2019-02-09T13:17:28.420Z,8.60
2019-02-09T13:22:31.790Z,8.50
2019-02-09T13:27:35.171Z,8.40
2019-02-09T13:32:38.565Z,8.40
2019-02-09T13:37:41.984Z,8.30
2019-02-09T13:42:45.367Z,8.30
2019-02-09T13:47:48.747Z,8.30
2019-02-09T13:52:52.199Z,8.40
2019-02-09T13:57:55.660Z,8.40
2019-02-09T14:02:59.287Z,8.50
2019-02-09T14:08:02.748Z,8.50
2019-02-09T14:13:14.018Z,8.50
2019-02-09T14:18:11.739Z,8.50
2019-02-09T14:23:15.119Z,8.40
2019-02-09T14:28:19.971Z,8.30
2019-02-09T14:33:23.356Z,8.20
2019-02-09T14:38:26.750Z,8.10
2019-02-09T14:43:30.130Z,8.00
2019-02-09T14:48:33.517Z,7.90
2019-02-09T14:53:36.899Z,7.80
2019-02-09T14:58:40.276Z,7.80
2019-02-09T15:03:43.659Z,7.70
2019-02-09T15:13:54.280Z,7.60
2019-02-09T15:18:57.682Z,7.50
2019-02-09T15:24:01.121Z,7.40
2019-02-09T15:29:04.743Z,7.30
2019-02-09T15:34:10.306Z,7.30
2019-02-09T15:39:13.249Z,7.20
2019-02-09T15:44:16.635Z,7.10
2019-02-09T15:49:20.011Z,7.00
2019-02-09T15:54:23.419Z,6.90
2019-02-09T15:59:26.791Z,6.80
2019-02-09T16:04:30.183Z,6.70
2019-02-09T16:09:33.554Z,6.60
2019-02-09T16:14:36.935Z,6.50
2019-02-09T16:19:40.314Z,6.50
2019-02-09T16:24:43.691Z,6.30
2019-02-09T16:29:47.075Z,6.20
2019-02-09T16:34:51.334Z,6.20
2019-02-09T16:39:54.719Z,6.10
2019-02-09T16:44:58.099Z,6.00
2019-02-09T16:50:01.483Z,5.90
2019-02-09T16:55:06.906Z,5.80
2019-02-09T17:00:13.415Z,5.80
2019-02-09T17:05:16.868Z,5.70
2019-02-09T17:10:20.840Z,5.60
2019-02-09T17:15:28.575Z,5.50
2019-02-09T17:20:31.966Z,5.40
2019-02-09T17:25:35.563Z,5.30
2019-02-09T17:30:39.418Z,5.20
2019-02-09T17:35:42.818Z,5.20
2019-02-09T17:40:47.835Z,5.10
2019-02-09T17:45:57.314Z,5.00
2019-02-09T17:51:00.738Z,4.90
2019-02-09T17:56:06.820Z,4.90
2019-02-09T18:01:11.847Z,4.80
2019-02-09T18:06:15.233Z,4.70
2019-02-09T18:11:18.610Z,4.70
2019-02-09T18:16:21.996Z,4.60
2019-02-09T18:21:25.379Z,4.60
2019-02-09T18:26:28.798Z,4.50
2019-02-09T18:31:32.189Z,4.40
2019-02-09T18:36:35.567Z,4.40
2019-02-09T18:41:38.947Z,4.30
2019-02-09T18:46:42.333Z,4.20
2019-02-09T18:51:45.715Z,4.10
2019-02-09T18:56:49.092Z,4.00
2019-02-09T19:01:52.475Z,4.00
2019-02-09T19:06:55.880Z,3.90
2019-02-09T19:11:59.252Z,3.80
2019-02-09T19:17:02.772Z,3.80
2019-02-09T19:22:06.560Z,3.70
2019-02-09T19:27:10.013Z,3.60
2019-02-09T19:32:13.391Z,3.50
2019-02-09T19:37:16.771Z,3.50
2019-02-09T19:42:20.151Z,3.40
2019-02-09T19:47:23.548Z,3.30
2019-02-09T19:52:26.925Z,3.20
2019-02-09T19:57:30.303Z,3.20
2019-02-09T20:02:33.678Z,3.10
2019-02-09T20:07:37.060Z,3.00
2019-02-09T20:12:40.440Z,2.90
2019-02-09T20:17:43.819Z,2.90
2019-02-09T20:22:47.275Z,2.80
2019-02-09T20:27:50.733Z,2.70
2019-02-09T20:32:54.284Z,2.60
2019-02-09T20:37:57.953Z,2.60
2019-02-09T20:43:02.893Z,2.50
2019-02-09T20:48:06.870Z,2.40
2019-02-09T20:53:10.237Z,2.40
2019-02-09T20:58:14.247Z,2.30
2019-02-09T21:03:17.623Z,2.30
2019-02-09T21:08:21.007Z,2.30
2019-02-09T21:13:24.387Z,2.20
2019-02-09T21:18:28.044Z,2.20
2019-02-09T21:23:31.431Z,2.20
2019-02-09T21:28:34.827Z,2.20
2019-02-09T21:33:38.203Z,2.20
2019-02-09T21:38:41.576Z,2.20
2019-02-09T21:43:44.960Z,2.20
2019-02-09T21:48:48.339Z,2.20
2019-02-09T21:53:51.719Z,2.10
2019-02-09T21:58:55.110Z,2.10
2019-02-09T22:03:58.482Z,2.10
2019-02-09T22:09:01.925Z,2.10
2019-02-09T22:14:05.393Z,2.00
2019-02-09T22:19:08.837Z,2.00
2019-02-09T22:24:12.218Z,2.00
2019-02-09T22:29:15.594Z,2.00
2019-02-09T22:34:18.968Z,1.90
2019-02-09T22:39:22.347Z,1.90
2019-02-09T22:44:25.731Z,1.90
2019-02-09T22:49:29.110Z,1.80
2019-02-09T22:54:32.504Z,1.80
2019-02-09T22:59:35.879Z,1.80
2019-02-09T23:04:45.223Z,1.80
2019-02-09T23:09:48.608Z,1.70
2019-02-09T23:14:51.999Z,1.70
2019-02-09T23:19:55.391Z,1.60
2019-02-09T23:24:58.769Z,1.60
2019-02-09T23:30:02.148Z,1.60
2019-02-09T23:35:06.267Z,1.60
2019-02-09T23:40:09.682Z,1.50
2019-02-09T23:45:13.059Z,1.50
2019-02-09T23:50:16.451Z,1.50
2019-02-09T23:55:19.842Z,1.50
